Time;durP1;ratioP1;P1;durP2;ratioP2;P2;SDS_P1;SDS_P2;PMS_P1;PMS_P2;Temp;Humidity;BMP_temperature;BMP_pressure;BME280_temperature;BME280_humidity;BME280_pressure;Samples;Min_cycle;Max_cycle;Signal;HPM_P1;HPM_P2
2022/12/26 00:01:47;;;;;;;14.35;8.98;;;9.40;99.90;;;;;;5061919;28;20119;-69
2022/12/26 00:04:13;;;;;;;12.82;8.23;;;9.30;99.90;;;;;;5071947;28;20085;-69
2022/12/26 00:06:39;;;;;;;14.13;9.43;;;9.40;99.90;;;;;;5071881;28;20036;-69
2022/12/26 00:09:05;;;;;;;14.65;8.85;;;9.40;99.90;;;;;;5070898;28;20524;-68
2022/12/26 00:11:32;;;;;;;15.68;8.90;;;9.40;99.90;;;;;;5072155;28;20033;-69
2022/12/26 00:14:07;;;;;;;14.23;9.30;;;9.40;99.90;;;;;;5071341;28;20510;-69
2022/12/26 00:16:33;;;;;;;15.75;8.80;;;9.40;99.90;;;;;;5072107;28;20037;-69
2022/12/26 00:18:59;;;;;;;18.15;9.38;;;9.30;99.90;;;;;;5072038;28;20041;-69
2022/12/26 00:21:26;;;;;;;16.73;9.77;;;9.30;99.90;;;;;;5072141;28;20048;-69
2022/12/26 00:23:52;;;;;;;16.48;9.52;;;9.30;99.90;;;;;;5071046;28;20045;-69
2022/12/26 00:26:21;;;;;;;16.95;9.38;;;9.20;99.90;;;;;;5072149;28;20051;-69
2022/12/26 00:28:47;;;;;;;15.73;8.85;;;9.10;99.90;;;;;;5071600;28;20055;-69
2022/12/26 00:31:25;;;;;;;17.15;9.20;;;9.20;99.90;;;;;;5070637;28;20068;-69
2022/12/26 00:33:51;;;;;;;16.10;8.73;;;9.10;99.90;;;;;;5071152;28;20412;-69
2022/12/26 00:36:20;;;;;;;13.20;8.68;;;9.10;99.90;;;;;;5071945;28;20040;-68
2022/12/26 00:38:46;;;;;;;13.50;8.20;;;9.10;99.90;;;;;;5071371;28;20076;-69
2022/12/26 00:41:13;;;;;;;16.60;8.32;;;9.10;99.90;;;;;;5071527;28;20535;-68
2022/12/26 00:43:38;;;;;;;13.38;7.60;;;9.00;99.90;;;;;;5070073;28;20044;-69
2022/12/26 00:46:04;;;;;;;12.55;8.38;;;9.00;99.90;;;;;;5070630;28;20067;-69
2022/12/26 00:48:30;;;;;;;13.07;8.02;;;9.10;99.90;;;;;;5070002;28;20045;-69
2022/12/26 00:50:56;;;;;;;12.38;7.45;;;9.10;99.90;;;;;;5054422;28;20470;-69
2022/12/26 00:53:25;;;;;;;14.32;7.53;;;9.10;99.90;;;;;;5050515;28;20433;-69
2022/12/26 00:55:51;;;;;;;12.02;7.28;;;9.00;99.90;;;;;;5050791;28;20070;-69
2022/12/26 00:58:18;;;;;;;12.10;7.38;;;9.00;99.90;;;;;;5051533;28;20037;-69
2022/12/26 01:00:44;;;;;;;13.85;7.80;;;9.10;99.90;;;;;;5050838;28;20375;-69
2022/12/26 01:03:11;;;;;;;13.50;7.80;;;9.10;99.90;;;;;;5051447;28;20209;-69
2022/12/26 01:05:41;;;;;;;12.02;7.63;;;9.10;99.90;;;;;;5050572;28;20037;-69
2022/12/26 01:08:06;;;;;;;13.63;7.95;;;9.10;99.90;;;;;;5050000;28;20523;-69
2022/12/26 01:10:32;;;;;;;15.30;8.27;;;9.00;99.90;;;;;;5050866;28;20136;-69
2022/12/26 01:12:58;;;;;;;13.60;8.70;;;9.10;99.90;;;;;;5049945;28;20502;-69
2022/12/26 01:15:23;;;;;;;16.42;8.45;;;9.00;99.90;;;;;;5050170;28;20512;-69
2022/12/26 01:17:49;;;;;;;14.95;7.95;;;9.10;99.90;;;;;;5050995;28;20037;-69
2022/12/26 01:20:14;;;;;;;13.10;7.88;;;9.00;99.90;;;;;;5051012;28;20049;-69
2022/12/26 01:22:40;;;;;;;14.55;8.75;;;9.00;99.90;;;;;;5049234;28;20051;-69
2022/12/26 01:25:06;;;;;;;14.98;7.93;;;9.00;99.90;;;;;;5050292;28;20077;-69
2022/12/26 01:27:31;;;;;;;15.48;8.15;;;9.00;99.90;;;;;;5051104;28;20029;-69
2022/12/26 01:29:57;;;;;;;11.23;7.18;;;9.10;99.90;;;;;;5050830;28;20049;-69
2022/12/26 01:32:22;;;;;;;12.07;7.50;;;9.10;99.90;;;;;;5051121;28;20090;-69
2022/12/26 01:34:48;;;;;;;13.10;7.00;;;9.00;99.90;;;;;;5050288;28;20036;-69
2022/12/26 01:37:15;;;;;;;11.95;7.35;;;9.10;99.90;;;;;;5050771;28;20037;-69
2022/12/26 01:39:41;;;;;;;12.98;7.78;;;9.10;99.90;;;;;;5050901;28;20453;-69
2022/12/26 01:42:12;;;;;;;12.93;7.03;;;9.10;99.90;;;;;;5050945;28;20168;-72
2022/12/26 01:44:53;;;;;;;13.35;7.55;;;9.00;99.90;;;;;;5048599;28;20102;-71
2022/12/26 01:47:21;;;;;;;10.30;5.80;;;9.00;99.90;;;;;;5050761;28;20043;-69
2022/12/26 01:49:50;;;;;;;11.57;6.68;;;9.00;99.90;;;;;;5051910;28;20051;-69
2022/12/26 01:52:26;;;;;;;12.93;6.85;;;9.10;99.90;;;;;;5061735;28;20623;-69
2022/12/26 01:54:53;;;;;;;15.25;6.93;;;9.10;99.90;;;;;;5054768;28;20079;-69
2022/12/26 01:57:27;;;;;;;14.07;6.63;;;9.10;99.90;;;;;;5053313;28;20044;-69
2022/12/26 01:59:55;;;;;;;14.30;6.90;;;9.10;99.90;;;;;;5049870;28;20568;-68
2022/12/26 02:02:21;;;;;;;13.98;8.23;;;9.10;99.90;;;;;;5066010;28;20079;-68
2022/12/26 02:07:36;;;;;;;14.95;8.77;;;9.10;99.90;;;;;;5073147;28;20052;-69
2022/12/26 02:10:06;;;;;;;13.80;7.72;;;9.10;99.90;;;;;;5073002;28;20052;-69
2022/12/26 02:12:33;;;;;;;16.60;9.23;;;9.10;99.90;;;;;;5074177;28;20464;-68
2022/12/26 02:15:00;;;;;;;18.73;9.65;;;9.10;99.90;;;;;;5073876;28;20040;-69
2022/12/26 02:17:26;;;;;;;14.93;9.63;;;9.10;99.90;;;;;;5074518;28;20036;-68
2022/12/26 02:19:58;;;;;;;16.75;9.23;;;9.10;99.90;;;;;;5072973;28;20062;-68
2022/12/26 02:22:47;;;;;;;16.38;10.25;;;9.10;99.90;;;;;;5074355;28;20094;-69
2022/12/26 02:25:41;;;;;;;18.40;10.90;;;9.10;99.90;;;;;;5073753;28;20115;-71
2022/12/26 02:28:38;;;;;;;17.65;11.45;;;9.20;99.90;;;;;;5073994;28;20128;-71
2022/12/26 02:31:15;;;;;;;17.25;10.57;;;9.10;99.90;;;;;;5073166;28;20063;-69
2022/12/26 02:34:13;;;;;;;16.30;10.13;;;9.20;99.90;;;;;;5073772;28;20040;-69
2022/12/26 02:37:07;;;;;;;20.23;11.10;;;9.10;99.90;;;;;;5039278;28;20048;-68
2022/12/26 02:39:33;;;;;;;15.07;9.50;;;9.10;99.90;;;;;;5074121;28;20051;-69
2022/12/26 02:42:31;;;;;;;18.50;11.15;;;9.20;99.90;;;;;;5074036;28;20040;-68
2022/12/26 02:48:37;;;;;;;17.98;10.98;;;9.20;99.90;;;;;;5073970;28;20052;-68
2022/12/26 03:15:19;;;;;;;23.85;12.00;;;9.20;99.90;;;;;;5072739;28;20045;-69
2022/12/26 03:17:52;;;;;;;23.85;13.10;;;9.20;99.90;;;;;;5073231;28;20040;-69
2022/12/26 03:20:34;;;;;;;25.83;13.45;;;9.20;99.90;;;;;;5073242;28;20036;-69
2022/12/26 03:23:06;;;;;;;23.52;13.30;;;9.20;99.90;;;;;;5072105;28;20032;-67
2022/12/26 03:28:23;;;;;;;29.35;14.25;;;9.20;99.90;;;;;;5071566;28;20048;-67
2022/12/26 03:30:49;;;;;;;28.45;14.93;;;9.20;99.90;;;;;;5072987;28;20091;-67
2022/12/26 03:36:00;;;;;;;26.23;14.32;;;9.20;99.90;;;;;;5070916;28;20463;-67
2022/12/26 03:39:06;;;;;;;27.67;14.80;;;9.30;99.90;;;;;;5073058;28;20055;-67
2022/12/26 04:19:23;;;;;;;23.73;13.30;;;9.20;99.90;;;;;;5072087;28;20056;-68
2022/12/26 04:44:45;;;;;;;22.77;12.98;;;9.20;99.90;;;;;;5070918;28;20045;-67
2022/12/26 04:47:11;;;;;;;21.73;12.02;;;9.20;99.90;;;;;;5071770;28;20036;-68
2022/12/26 04:52:53;;;;;;;23.42;11.98;;;9.20;99.90;;;;;;5071758;28;20049;-68
2022/12/26 04:55:15;;;;;;;26.73;13.90;;;9.10;99.90;;;;;;5070282;28;20109;-68
2022/12/26 04:57:41;;;;;;;23.92;12.48;;;9.10;99.90;;;;;;5071332;28;20056;-68
2022/12/26 05:00:07;;;;;;;24.80;13.55;;;9.10;99.90;;;;;;5071189;28;20044;-68
2022/12/26 05:10:45;;;;;;;26.85;13.07;;;9.00;99.90;;;;;;5071029;28;20493;-68
2022/12/26 05:13:10;;;;;;;28.85;14.20;;;9.00;99.90;;;;;;5070984;28;20033;-68
2022/12/26 05:28:40;;;;;;;27.20;13.70;;;9.00;99.90;;;;;;5070503;28;20036;-68
2022/12/26 05:29:27;;;;;;;27.00;14.32;;;9.10;99.90;;;;;;5070954;28;20084;-68
2022/12/26 05:31:52;;;;;;;28.30;13.63;;;9.10;99.90;;;;;;5069735;28;20076;-68
2022/12/26 05:34:20;;;;;;;33.60;14.88;;;9.10;99.90;;;;;;5070129;28;20044;-68
2022/12/26 05:36:51;;;;;;;25.92;14.05;;;9.10;99.90;;;;;;5070905;28;20048;-67
2022/12/26 05:39:17;;;;;;;27.73;15.07;;;9.10;99.90;;;;;;5070984;28;20063;-67
2022/12/26 05:41:43;;;;;;;26.38;14.75;;;9.10;99.90;;;;;;5061477;28;20283;-67
2022/12/26 05:44:09;;;;;;;34.03;15.80;;;9.00;99.90;;;;;;5057312;28;20032;-67
2022/12/26 05:46:36;;;;;;;26.50;14.52;;;9.00;99.90;;;;;;5057635;28;20121;-67
2022/12/26 05:49:02;;;;;;;27.15;14.70;;;9.00;99.90;;;;;;5058923;28;20044;-67
2022/12/26 05:51:28;;;;;;;25.20;13.70;;;9.00;99.90;;;;;;5067768;28;20072;-67
2022/12/26 05:53:53;;;;;;;28.17;14.52;;;9.00;99.90;;;;;;5069918;28;20141;-67
2022/12/26 05:56:19;;;;;;;28.95;15.73;;;9.00;99.90;;;;;;5070836;28;20032;-68
2022/12/26 05:58:45;;;;;;;27.52;15.18;;;9.00;99.90;;;;;;5070713;28;20095;-67
2022/12/26 06:01:17;;;;;;;27.65;14.63;;;9.00;99.90;;;;;;5070668;28;20108;-67
2022/12/26 06:03:46;;;;;;;29.92;15.88;;;8.90;99.90;;;;;;5070282;28;20041;-68
2022/12/26 06:06:13;;;;;;;26.50;13.52;;;8.90;99.90;;;;;;5070577;28;20125;-68
2022/12/26 06:08:39;;;;;;;26.50;13.85;;;8.90;99.90;;;;;;5070514;28;20433;-67
2022/12/26 06:11:12;;;;;;;26.73;14.77;;;8.80;99.90;;;;;;5070816;28;20123;-67
2022/12/26 06:13:39;;;;;;;25.98;14.27;;;8.80;99.90;;;;;;5070292;28;20082;-67
2022/12/26 06:16:06;;;;;;;27.48;13.25;;;8.80;99.90;;;;;;5070150;28;20417;-67
2022/12/26 06:18:32;;;;;;;26.65;14.05;;;8.90;99.90;;;;;;5069236;28;20047;-67
2022/12/26 06:20:58;;;;;;;23.13;13.05;;;8.90;99.90;;;;;;5069091;28;20049;-67
2022/12/26 06:23:24;;;;;;;23.55;13.38;;;8.90;99.90;;;;;;5070495;28;20560;-67
2022/12/26 06:25:54;;;;;;;23.67;12.63;;;8.90;99.90;;;;;;5069852;28;20136;-67
2022/12/26 06:28:20;;;;;;;23.48;12.88;;;8.90;99.90;;;;;;5070387;28;20052;-68
2022/12/26 06:30:46;;;;;;;25.75;14.00;;;8.80;99.90;;;;;;5070451;28;20066;-67
2022/12/26 06:33:11;;;;;;;23.67;13.85;;;8.80;99.90;;;;;;5070261;28;20107;-67
2022/12/26 06:35:37;;;;;;;27.15;13.75;;;8.80;99.90;;;;;;5069994;28;20040;-67
2022/12/26 06:38:02;;;;;;;29.58;14.07;;;8.80;99.90;;;;;;5074207;28;20431;-68
2022/12/26 06:40:28;;;;;;;20.98;12.23;;;8.80;99.90;;;;;;5073709;28;20047;-67
2022/12/26 06:42:53;;;;;;;23.10;12.82;;;8.80;99.90;;;;;;5074169;28;20036;-67
2022/12/26 06:45:19;;;;;;;26.15;13.68;;;8.80;99.90;;;;;;5073134;28;20037;-68
2022/12/26 06:47:45;;;;;;;26.35;13.23;;;8.80;99.90;;;;;;5074013;28;20041;-68
2022/12/26 06:50:11;;;;;;;25.70;13.13;;;8.80;99.90;;;;;;5072247;28;20109;-68
2022/12/26 06:52:37;;;;;;;25.33;12.13;;;8.80;99.90;;;;;;5073750;28;20070;-68
2022/12/26 06:55:03;;;;;;;28.27;13.20;;;8.80;99.90;;;;;;5071318;28;20032;-68
2022/12/26 06:57:29;;;;;;;27.33;13.63;;;8.80;99.90;;;;;;5073908;28;20047;-68
2022/12/26 06:59:55;;;;;;;25.58;13.45;;;8.80;99.90;;;;;;5073312;28;20045;-68
2022/12/26 07:02:22;;;;;;;23.17;12.98;;;8.80;99.90;;;;;;5072320;28;20048;-68
2022/12/26 07:04:47;;;;;;;23.73;13.38;;;8.80;99.90;;;;;;5072791;28;20044;-68
2022/12/26 07:07:13;;;;;;;26.23;13.85;;;8.80;99.90;;;;;;5072094;28;20051;-68
2022/12/26 07:09:38;;;;;;;25.65;13.90;;;8.80;99.90;;;;;;5073415;28;20040;-68
2022/12/26 07:12:04;;;;;;;25.00;13.40;;;8.70;99.90;;;;;;5073354;28;20037;-68
2022/12/26 07:14:30;;;;;;;28.52;13.80;;;8.70;99.90;;;;;;5072756;28;20112;-68
2022/12/26 07:16:55;;;;;;;25.20;14.05;;;8.70;99.90;;;;;;5073281;28;20079;-68
2022/12/26 07:19:21;;;;;;;24.67;14.20;;;8.70;99.90;;;;;;5073265;28;20040;-68
2022/12/26 07:21:47;;;;;;;24.80;12.90;;;8.70;99.90;;;;;;5073352;28;20123;-68
2022/12/26 07:24:14;;;;;;;26.10;13.90;;;8.70;99.90;;;;;;5072214;28;20111;-71
2022/12/26 07:26:40;;;;;;;24.08;13.77;;;8.60;99.90;;;;;;5062990;28;20036;-68
2022/12/26 07:29:05;;;;;;;26.70;14.02;;;8.70;99.90;;;;;;5044751;28;20037;-68
2022/12/26 07:31:31;;;;;;;27.55;13.85;;;8.70;99.90;;;;;;5051342;28;20029;-68
2022/12/26 07:33:57;;;;;;;26.27;14.25;;;8.60;99.90;;;;;;5046812;28;20043;-68
2022/12/26 07:36:23;;;;;;;25.75;13.73;;;8.60;99.90;;;;;;5054155;28;20041;-68
2022/12/26 07:38:49;;;;;;;25.65;13.82;;;8.70;99.90;;;;;;5056327;28;20041;-71
2022/12/26 07:43:59;;;;;;;25.52;14.43;;;8.60;99.90;;;;;;5035580;28;20041;-70
2022/12/26 07:46:25;;;;;;;30.17;14.02;;;8.60;99.90;;;;;;5043296;28;20037;-67
2022/12/26 07:48:50;;;;;;;23.65;13.95;;;8.60;99.90;;;;;;5057659;28;20036;-68
2022/12/26 07:51:16;;;;;;;26.38;14.00;;;8.50;99.90;;;;;;5049300;28;20042;-67
2022/12/26 07:53:42;;;;;;;22.05;11.93;;;8.60;99.90;;;;;;5048372;28;20049;-67
2022/12/26 07:56:07;;;;;;;24.23;13.80;;;8.50;99.90;;;;;;5056812;28;20037;-67
2022/12/26 07:58:33;;;;;;;28.02;15.63;;;8.60;99.90;;;;;;5035465;28;20484;-67
2022/12/26 08:01:03;;;;;;;23.77;12.88;;;8.50;99.90;;;;;;5058045;28;20041;-68
2022/12/26 08:03:28;;;;;;;24.77;12.98;;;8.50;99.90;;;;;;5061546;28;20036;-68
2022/12/26 08:05:54;;;;;;;25.40;14.23;;;8.50;99.90;;;;;;5054271;28;20226;-68
2022/12/26 08:08:20;;;;;;;23.50;13.18;;;8.50;99.90;;;;;;5058035;28;20037;-68
2022/12/26 08:10:46;;;;;;;24.92;13.75;;;8.50;99.90;;;;;;5043221;28;20047;-67
2022/12/26 08:13:13;;;;;;;21.48;13.50;;;8.50;99.90;;;;;;5051176;28;20045;-67
2022/12/26 08:15:38;;;;;;;19.42;11.02;;;8.50;99.90;;;;;;5059614;28;20124;-68
2022/12/26 08:18:04;;;;;;;21.48;12.07;;;8.60;99.90;;;;;;5058200;28;20036;-67
2022/12/26 08:20:30;;;;;;;25.30;12.30;;;8.50;99.90;;;;;;5059604;28;20111;-67
2022/12/26 08:22:55;;;;;;;22.17;12.45;;;8.50;99.90;;;;;;5056278;28;20040;-67
2022/12/26 08:25:21;;;;;;;18.90;11.13;;;8.50;99.90;;;;;;5058304;28;20028;-67
2022/12/26 08:27:46;;;;;;;17.88;11.25;;;8.50;99.90;;;;;;5043280;28;20030;-67
2022/12/26 08:30:12;;;;;;;21.58;10.10;;;8.50;99.90;;;;;;5038866;28;20045;-67
2022/12/26 08:32:38;;;;;;;14.30;10.52;;;8.50;99.90;;;;;;5063117;28;20158;-67
2022/12/26 08:35:04;;;;;;;13.57;9.45;;;8.50;99.90;;;;;;5057985;28;20037;-67
2022/12/26 08:37:29;;;;;;;15.25;9.02;;;8.50;99.90;;;;;;5062551;28;20454;-67
2022/12/26 08:39:55;;;;;;;13.73;9.13;;;8.50;99.90;;;;;;5063152;28;20043;-70
2022/12/26 08:42:21;;;;;;;13.13;7.03;;;8.60;99.90;;;;;;5039514;28;20103;-71
2022/12/26 08:44:47;;;;;;;14.80;9.77;;;8.90;99.90;;;;;;5044504;28;20048;-68
2022/12/26 08:47:13;;;;;;;17.17;9.82;;;9.00;99.90;;;;;;5059232;28;20389;-68
2022/12/26 08:49:39;;;;;;;15.57;8.13;;;8.90;99.90;;;;;;5051408;28;20397;-68
2022/12/26 08:52:04;;;;;;;12.68;7.90;;;8.90;99.90;;;;;;5051641;28;20041;-68
2022/12/26 08:54:30;;;;;;;11.75;7.43;;;8.90;99.90;;;;;;5050717;28;20076;-68
2022/12/26 08:56:56;;;;;;;17.85;8.48;;;8.90;99.90;;;;;;5051591;28;20241;-68
2022/12/26 08:59:22;;;;;;;12.93;7.22;;;8.90;99.90;;;;;;5049654;28;20048;-68
2022/12/26 09:01:47;;;;;;;13.30;7.55;;;8.90;99.90;;;;;;5051332;28;20097;-68
2022/12/26 09:04:13;;;;;;;12.27;7.25;;;8.90;99.90;;;;;;5050680;28;20371;-68
2022/12/26 09:06:39;;;;;;;14.65;7.13;;;8.90;99.90;;;;;;5051402;28;20041;-68
2022/12/26 09:09:07;;;;;;;9.85;6.55;;;9.00;99.90;;;;;;5051112;28;20044;-68
2022/12/26 09:11:32;;;;;;;9.88;6.60;;;9.00;99.90;;;;;;5049798;28;20075;-68
2022/12/26 09:14:00;;;;;;;10.18;6.38;;;9.00;99.90;;;;;;5050458;28;20137;-68
2022/12/26 09:16:30;;;;;;;9.45;5.93;;;9.10;99.90;;;;;;5051159;28;20138;-68
2022/12/26 09:18:58;;;;;;;12.52;6.40;;;9.10;99.90;;;;;;5051149;28;20049;-68
2022/12/26 09:21:25;;;;;;;10.90;5.35;;;9.20;99.90;;;;;;5049613;28;20124;-68
2022/12/26 09:23:59;;;;;;;9.40;5.32;;;9.20;99.90;;;;;;5050171;28;20079;-68
2022/12/26 09:26:25;;;;;;;10.35;5.18;;;9.20;99.90;;;;;;5049984;28;20562;-68
2022/12/26 09:28:52;;;;;;;7.93;4.65;;;9.20;99.90;;;;;;5051101;28;20422;-68
2022/12/26 09:31:20;;;;;;;7.35;5.35;;;9.20;99.90;;;;;;5049522;28;20045;-68
2022/12/26 09:33:46;;;;;;;7.22;5.35;;;9.30;99.90;;;;;;5048871;28;20040;-68
2022/12/26 09:36:14;;;;;;;9.70;5.07;;;9.30;99.90;;;;;;5049594;28;20563;-68
2022/12/26 09:38:40;;;;;;;8.55;4.40;;;9.30;99.90;;;;;;5049650;28;20053;-68
2022/12/26 09:41:24;;;;;;;6.55;4.78;;;9.30;99.90;;;;;;5049707;28;20561;-68
2022/12/26 09:44:24;;;;;;;7.32;4.90;;;9.30;99.90;;;;;;5049956;28;20120;-68
2022/12/26 09:47:17;;;;;;;6.65;4.25;;;9.30;99.90;;;;;;5049609;28;20033;-68
2022/12/26 09:50:03;;;;;;;6.60;4.18;;;9.40;99.90;;;;;;5050334;28;20045;-68
2022/12/26 09:52:54;;;;;;;6.18;4.53;;;9.40;99.90;;;;;;5043234;28;20477;-68
2022/12/26 09:55:41;;;;;;;5.38;4.07;;;9.40;99.90;;;;;;5048896;28;20664;-68
2022/12/26 09:58:20;;;;;;;5.70;3.80;;;9.40;99.90;;;;;;5050969;28;20055;-68
2022/12/26 10:01:07;;;;;;;5.45;4.10;;;9.50;99.90;;;;;;5050372;28;20063;-68
2022/12/26 10:03:41;;;;;;;10.73;3.95;;;9.50;99.90;;;;;;5050650;28;20033;-68
2022/12/26 10:06:10;;;;;;;6.63;3.78;;;9.50;99.90;;;;;;5050098;28;20091;-68
2022/12/26 10:09:01;;;;;;;3.45;3.05;;;9.50;99.90;;;;;;5050347;28;20107;-68
2022/12/26 10:11:30;;;;;;;6.72;3.45;;;9.50;99.90;;;;;;5051239;28;20413;-68
2022/12/26 10:14:03;;;;;;;7.63;3.75;;;9.60;99.90;;;;;;5052506;28;20094;-68
2022/12/26 10:16:40;;;;;;;7.55;3.65;;;9.50;99.90;;;;;;5054502;28;20075;-68
2022/12/26 10:19:31;;;;;;;11.85;4.15;;;9.50;99.90;;;;;;5054371;28;20076;-68
2022/12/26 10:22:00;;;;;;;6.93;3.80;;;9.50;99.90;;;;;;5054471;28;20409;-68
2022/12/26 10:24:29;;;;;;;6.70;3.15;;;9.50;99.90;;;;;;5053673;28;20051;-68
2022/12/26 10:27:01;;;;;;;4.90;2.53;;;9.50;99.90;;;;;;5054514;28;20041;-68
2022/12/26 10:29:33;;;;;;;8.98;2.03;;;9.30;99.90;;;;;;5054133;28;20608;-68
2022/12/26 10:32:04;;;;;;;10.38;2.92;;;9.20;99.90;;;;;;5054154;28;20133;-69
2022/12/26 10:34:43;;;;;;;5.50;1.90;;;9.10;99.90;;;;;;5053548;28;20032;-68
2022/12/26 10:37:26;;;;;;;9.30;1.73;;;8.90;99.90;;;;;;5054273;28;20041;-68
2022/12/26 10:40:13;;;;;;;9.82;2.20;;;8.70;99.90;;;;;;5052736;28;20513;-68
2022/12/26 10:42:41;;;;;;;5.47;1.90;;;8.80;99.90;;;;;;5052801;28;20410;-68
2022/12/26 10:45:48;;;;;;;10.55;3.40;;;8.70;99.90;;;;;;5053382;28;20417;-68
2022/12/26 10:48:14;;;;;;;14.38;2.95;;;8.70;99.90;;;;;;5011657;28;20041;-68
2022/12/26 10:50:46;;;;;;;13.10;2.35;;;8.60;99.90;;;;;;5046985;28;20052;-68
2022/12/26 10:53:14;;;;;;;5.70;2.10;;;8.60;99.90;;;;;;5053944;28;20114;-68
2022/12/26 10:55:40;;;;;;;6.43;2.33;;;8.60;99.90;;;;;;5053206;28;20052;-68
2022/12/26 10:58:13;;;;;;;7.63;2.58;;;8.60;99.90;;;;;;5053937;28;20478;-68
2022/12/26 11:00:38;;;;;;;3.70;1.88;;;8.70;99.90;;;;;;5052100;28;20496;-68
2022/12/26 11:03:06;;;;;;;10.93;1.80;;;8.60;99.90;;;;;;5053533;28;20043;-68
2022/12/26 11:05:35;;;;;;;8.32;2.20;;;8.60;99.90;;;;;;5053069;28;20134;-69
2022/12/26 11:08:30;;;;;;;8.07;2.25;;;8.60;99.90;;;;;;5053822;28;20124;-69
2022/12/26 11:11:17;;;;;;;4.07;1.55;;;8.60;99.90;;;;;;5053439;28;20057;-68
2022/12/26 11:13:51;;;;;;;7.93;2.53;;;8.50;99.90;;;;;;5053191;28;20098;-69
2022/12/26 11:16:30;;;;;;;3.13;1.33;;;8.60;99.90;;;;;;5053287;28;20533;-69
2022/12/26 11:18:56;;;;;;;5.97;1.50;;;8.50;99.90;;;;;;5053408;28;20083;-69
2022/12/26 11:21:27;;;;;;;7.93;1.42;;;8.40;99.90;;;;;;5052994;28;20063;-69
2022/12/26 11:24:18;;;;;;;7.05;1.67;;;8.50;99.90;;;;;;5052405;28;20393;-68
2022/12/26 11:26:44;;;;;;;4.00;1.70;;;8.50;99.90;;;;;;5053183;28;20471;-68
2022/12/26 11:29:14;;;;;;;6.68;1.90;;;8.50;99.90;;;;;;5053084;28;20148;-69
2022/12/26 11:31:42;;;;;;;8.23;2.00;;;8.40;99.90;;;;;;5052997;28;20116;-68
2022/12/26 11:34:14;;;;;;;5.15;1.67;;;8.40;99.90;;;;;;5052536;28;20037;-69
2022/12/26 11:36:46;;;;;;;11.57;2.38;;;8.40;99.90;;;;;;5053133;28;20435;-69
2022/12/26 11:39:24;;;;;;;9.57;2.30;;;8.30;99.90;;;;;;5053201;28;20033;-69
2022/12/26 11:41:51;;;;;;;3.45;1.70;;;8.30;99.90;;;;;;5052991;28;20183;-68
2022/12/26 11:44:28;;;;;;;6.28;2.33;;;8.30;99.90;;;;;;5052338;28;20045;-69
2022/12/26 11:47:15;;;;;;;5.43;2.20;;;8.30;99.90;;;;;;5052916;28;20037;-69
2022/12/26 11:50:07;;;;;;;4.82;1.40;;;8.30;99.90;;;;;;5051112;28;20040;-69
2022/12/26 11:52:43;;;;;;;6.30;2.05;;;8.20;99.90;;;;;;5052548;28;20029;-69
2022/12/26 11:55:21;;;;;;;3.33;1.30;;;8.20;99.90;;;;;;5051736;28;20473;-69
2022/12/26 11:57:55;;;;;;;2.70;1.33;;;8.20;99.90;;;;;;5051177;28;20073;-69
2022/12/26 12:00:21;;;;;;;3.97;1.95;;;8.20;99.90;;;;;;5052225;28;20049;-69
2022/12/26 12:02:47;;;;;;;9.13;2.13;;;8.20;99.90;;;;;;5052702;28;20041;-69
2022/12/26 12:05:21;;;;;;;9.40;1.88;;;8.20;99.90;;;;;;5051688;28;20405;-68
2022/12/26 12:08:14;;;;;;;4.90;1.40;;;8.20;99.90;;;;;;5052670;28;20076;-69
2022/12/26 12:11:03;;;;;;;9.32;3.28;;;8.20;99.90;;;;;;5052344;28;20448;-69
2022/12/26 12:13:51;;;;;;;5.40;1.50;;;8.20;99.90;;;;;;5052510;28;20048;-69
2022/12/26 12:16:31;;;;;;;7.95;2.53;;;8.20;99.90;;;;;;5052420;28;20086;-68
2022/12/26 12:19:30;;;;;;;12.70;2.70;;;8.20;99.90;;;;;;5052320;28;20036;-69
2022/12/26 12:22:28;;;;;;;9.95;1.88;;;8.20;99.90;;;;;;5052550;28;20037;-69
2022/12/26 12:24:57;;;;;;;9.60;2.65;;;8.20;99.90;;;;;;5028116;28;20102;-68
2022/12/26 12:27:34;;;;;;;9.93;2.40;;;8.10;99.90;;;;;;5052205;28;20383;-69
2022/12/26 12:30:07;;;;;;;7.95;1.98;;;8.10;99.90;;;;;;5050357;28;20565;-69
2022/12/26 12:32:49;;;;;;;9.48;2.30;;;8.00;99.90;;;;;;5051804;28;20124;-69
2022/12/26 12:35:51;;;;;;;6.70;2.20;;;8.10;99.90;;;;;;5050953;28;20460;-69
2022/12/26 12:38:49;;;;;;;17.27;2.75;;;8.00;99.90;;;;;;5050558;28;20087;-69
2022/12/26 12:41:33;;;;;;;5.88;2.10;;;8.00;99.90;;;;;;5051941;28;20044;-68
2022/12/26 12:44:07;;;;;;;5.43;1.77;;;7.90;99.90;;;;;;5051146;28;20388;-69
2022/12/26 12:47:14;;;;;;;11.00;2.40;;;7.90;99.90;;;;;;5051633;28;20040;-69
2022/12/26 12:50:07;;;;;;;8.68;2.22;;;7.90;99.90;;;;;;5037236;28;20418;-69
2022/12/26 12:52:47;;;;;;;9.70;2.15;;;8.00;99.90;;;;;;5051637;28;20043;-69
2022/12/26 12:55:36;;;;;;;6.88;2.13;;;7.80;99.90;;;;;;5049424;28;20047;-69
2022/12/26 12:58:29;;;;;;;11.35;2.50;;;7.80;99.90;;;;;;5051648;28;20037;-69
2022/12/26 13:01:03;;;;;;;5.65;2.10;;;7.80;99.90;;;;;;5051279;28;20128;-68
2022/12/26 13:03:43;;;;;;;9.50;1.88;;;7.80;99.90;;;;;;5051641;28;20044;-68
2022/12/26 13:06:19;;;;;;;9.15;1.83;;;7.80;99.90;;;;;;5051549;28;20073;-68
2022/12/26 13:08:53;;;;;;;10.35;2.10;;;7.80;99.90;;;;;;5051190;28;20056;-68
2022/12/26 13:11:34;;;;;;;8.73;2.17;;;7.70;99.90;;;;;;5049765;28;20086;-68
2022/12/26 13:14:23;;;;;;;7.55;2.08;;;7.60;99.90;;;;;;5049063;28;20123;-68
2022/12/26 13:17:04;;;;;;;8.80;2.15;;;7.70;99.90;;;;;;5050012;28;20037;-68
2022/12/26 13:19:40;;;;;;;12.60;2.70;;;7.70;99.90;;;;;;5051243;28;20374;-68
2022/12/26 13:22:27;;;;;;;7.85;2.40;;;7.70;99.90;;;;;;5049675;28;20053;-68
2022/12/26 13:24:58;;;;;;;9.60;2.08;;;7.60;99.90;;;;;;5048879;28;20045;-68
2022/12/26 13:27:33;;;;;;;9.43;2.60;;;7.70;99.90;;;;;;5050984;28;20041;-68
2022/12/26 13:29:59;;;;;;;8.80;3.50;;;7.70;99.90;;;;;;5050691;28;20520;-69
2022/12/26 13:32:28;;;;;;;8.15;2.10;;;7.70;99.90;;;;;;5050734;28;20044;-68
2022/12/26 13:34:57;;;;;;;7.70;1.98;;;7.70;99.90;;;;;;5050384;28;20037;-68
2022/12/26 13:37:37;;;;;;;5.75;1.98;;;7.70;99.90;;;;;;5050593;28;20090;-68
2022/12/26 13:40:17;;;;;;;5.80;2.05;;;7.70;99.90;;;;;;5050689;28;20434;-69
2022/12/26 13:45:41;;;;;;;12.95;2.22;;;7.60;99.90;;;;;;5049496;28;20046;-69
2022/12/26 13:48:16;;;;;;;11.50;1.52;;;7.70;99.90;;;;;;5049354;28;20041;-69
2022/12/26 13:50:49;;;;;;;6.28;2.67;;;7.60;99.90;;;;;;5050851;28;20037;-69
2022/12/26 13:53:23;;;;;;;11.15;2.38;;;7.60;99.90;;;;;;5050601;28;20094;-69
2022/12/26 13:55:51;;;;;;;7.25;2.15;;;7.50;99.90;;;;;;5050049;28;20464;-68
2022/12/26 13:58:48;;;;;;;14.82;2.20;;;7.60;99.90;;;;;;5050731;28;20091;-69
2022/12/26 14:01:24;;;;;;;6.70;2.20;;;7.50;99.90;;;;;;5050764;28;20041;-68
2022/12/26 14:04:23;;;;;;;12.80;2.42;;;7.50;99.90;;;;;;5049897;28;20045;-69
2022/12/26 14:07:07;;;;;;;9.68;2.30;;;7.50;99.90;;;;;;5049174;28;20041;-69
2022/12/26 14:10:01;;;;;;;10.98;2.42;;;7.50;99.90;;;;;;5050582;28;20444;-69
2022/12/26 14:12:46;;;;;;;6.28;2.08;;;7.50;99.90;;;;;;5044408;28;20045;-69
2022/12/26 14:15:39;;;;;;;4.78;1.85;;;7.50;99.90;;;;;;5049947;28;20037;-69
2022/12/26 14:18:34;;;;;;;8.68;2.30;;;7.40;99.90;;;;;;5050321;28;20041;-69
2022/12/26 14:21:21;;;;;;;5.38;2.20;;;7.50;99.90;;;;;;5050321;28;20052;-68
2022/12/26 14:24:13;;;;;;;8.57;1.70;;;7.50;99.90;;;;;;5050002;28;20179;-69
2022/12/26 14:26:39;;;;;;;14.40;2.55;;;7.40;99.90;;;;;;5050299;28;20124;-69
2022/12/26 14:29:37;;;;;;;7.38;2.78;;;7.40;99.90;;;;;;5050533;28;20572;-69
2022/12/26 14:32:31;;;;;;;8.32;2.63;;;7.30;99.90;;;;;;5050455;28;20116;-68
2022/12/26 14:35:22;;;;;;;14.07;3.35;;;7.30;99.90;;;;;;5031717;28;20119;-68
2022/12/26 14:38:02;;;;;;;9.43;2.85;;;7.30;99.90;;;;;;5049107;28;20055;-68
2022/12/26 14:40:34;;;;;;;11.07;2.50;;;7.30;99.90;;;;;;5050297;28;20123;-68
2022/12/26 14:43:14;;;;;;;10.55;2.25;;;7.30;99.90;;;;;;5050287;28;20485;-68
2022/12/26 14:45:50;;;;;;;10.13;2.35;;;7.20;99.90;;;;;;5049391;28;20520;-69
2022/12/26 14:48:16;;;;;;;6.72;2.45;;;7.20;99.90;;;;;;5050057;28;20047;-69
2022/12/26 14:50:51;;;;;;;8.07;2.28;;;7.20;99.90;;;;;;5050167;28;20361;-69
2022/12/26 14:53:28;;;;;;;4.25;1.90;;;7.10;99.90;;;;;;5050313;28;20128;-69
2022/12/26 14:56:01;;;;;;;8.25;2.10;;;7.10;99.90;;;;;;5049609;28;20041;-69
2022/12/26 14:58:37;;;;;;;9.63;1.92;;;7.10;99.90;;;;;;5053398;28;20048;-69
2022/12/26 15:01:17;;;;;;;13.40;5.18;;;7.10;99.90;;;;;;5053781;28;20040;-69
2022/12/26 15:04:01;;;;;;;10.90;2.55;;;7.10;99.90;;;;;;5052999;28;20561;-69
2022/12/26 15:06:48;;;;;;;7.40;1.98;;;7.00;99.90;;;;;;5052157;28;20408;-69
2022/12/26 15:09:28;;;;;;;16.88;2.58;;;7.00;99.90;;;;;;5053931;28;20053;-69
2022/12/26 15:12:05;;;;;;;11.15;2.20;;;7.00;99.90;;;;;;5053160;28;20102;-69
2022/12/26 15:15:07;;;;;;;12.85;2.13;;;6.90;99.90;;;;;;5052882;28;20447;-69
2022/12/26 15:17:45;;;;;;;7.88;1.88;;;6.90;99.90;;;;;;5053502;28;20037;-68
2022/12/26 15:20:23;;;;;;;11.85;2.80;;;6.90;99.90;;;;;;5053504;28;20047;-69
2022/12/26 15:23:20;;;;;;;10.60;2.72;;;6.90;99.90;;;;;;5053314;28;20116;-69